sensor_id;sensor_type;location;lat;lon;timestamp;temperature;humidity
12520;DHT22;6325;49.540;8.364;2022-09-09T00:00:29;17.50;99.90
12520;DHT22;6325;49.540;8.364;2022-09-09T00:03:05;17.40;99.90
12520;DHT22;6325;49.540;8.364;2022-09-09T00:05:43;17.40;99.90
12520;DHT22;6325;49.540;8.364;2022-09-09T00:08:16;17.50;99.90
12520;DHT22;6325;49.540;8.364;2022-09-09T00:10:51;17.50;99.90
12520;DHT22;6325;49.540;8.364;2022-09-09T00:13:25;17.50;99.90
12520;DHT22;6325;49.540;8.364;2022-09-09T00:15:58;18.00;99.90
12520;DHT22;6325;49.540;8.364;2022-09-09T00:18:31;17.30;99.90
12520;DHT22;6325;49.540;8.364;2022-09-09T00:21:06;18.20;99.90
12520;DHT22;6325;49.540;8.364;2022-09-09T00:23:37;17.50;99.90
12520;DHT22;6325;49.540;8.364;2022-09-09T00:26:09;17.30;99.90
12520;DHT22;6325;49.540;8.364;2022-09-09T00:28:41;17.60;99.90
12520;DHT22;6325;49.540;8.364;2022-09-09T00:31:14;17.60;99.90
12520;DHT22;6325;49.540;8.364;2022-09-09T00:33:43;17.30;99.90
12520;DHT22;6325;49.540;8.364;2022-09-09T00:36:16;17.60;99.90
12520;DHT22;6325;49.540;8.364;2022-09-09T00:38:48;17.60;99.90
12520;DHT22;6325;49.540;8.364;2022-09-09T00:41:21;17.50;99.90
12520;DHT22;6325;49.540;8.364;2022-09-09T00:43:56;17.70;99.90
12520;DHT22;6325;49.540;8.364;2022-09-09T00:46:46;17.60;99.90
12520;DHT22;6325;49.540;8.364;2022-09-09T00:49:25;17.20;99.90
12520;DHT22;6325;49.540;8.364;2022-09-09T00:52:04;17.60;99.90
12520;DHT22;6325;49.540;8.364;2022-09-09T00:54:43;17.60;99.90
12520;DHT22;6325;49.540;8.364;2022-09-09T00:57:23;17.70;99.90
12520;DHT22;6325;49.540;8.364;2022-09-09T00:59:58;17.70;99.90
12520;DHT22;6325;49.540;8.364;2022-09-09T01:02:32;17.60;99.90
12520;DHT22;6325;49.540;8.364;2022-09-09T01:05:05;17.60;99.90
12520;DHT22;6325;49.540;8.364;2022-09-09T01:07:35;17.50;99.90
12520;DHT22;6325;49.540;8.364;2022-09-09T01:10:07;17.50;99.90
12520;DHT22;6325;49.540;8.364;2022-09-09T01:12:41;17.60;99.90
12520;DHT22;6325;49.540;8.364;2022-09-09T01:15:10;17.50;99.90
12520;DHT22;6325;49.540;8.364;2022-09-09T01:17:52;17.40;99.90
12520;DHT22;6325;49.540;8.364;2022-09-09T01:20:24;17.50;99.90
12520;DHT22;6325;49.540;8.364;2022-09-09T01:23:13;17.40;99.90
12520;DHT22;6325;49.540;8.364;2022-09-09T01:26:10;17.40;99.90
12520;DHT22;6325;49.540;8.364;2022-09-09T01:28:39;17.60;99.90
12520;DHT22;6325;49.540;8.364;2022-09-09T01:31:09;17.30;99.90
12520;DHT22;6325;49.540;8.364;2022-09-09T01:33:38;17.30;99.90
12520;DHT22;6325;49.540;8.364;2022-09-09T01:36:08;17.30;99.90
12520;DHT22;6325;49.540;8.364;2022-09-09T01:38:37;17.30;99.90
12520;DHT22;6325;49.540;8.364;2022-09-09T01:41:04;17.40;99.90
12520;DHT22;6325;49.540;8.364;2022-09-09T01:43:32;17.10;99.90
12520;DHT22;6325;49.540;8.364;2022-09-09T01:46:01;17.30;99.90
12520;DHT22;6325;49.540;8.364;2022-09-09T01:48:29;17.30;99.90
12520;DHT22;6325;49.540;8.364;2022-09-09T01:50:56;17.30;99.90
12520;DHT22;6325;49.540;8.364;2022-09-09T01:53:23;17.40;99.90
12520;DHT22;6325;49.540;8.364;2022-09-09T01:56:01;17.30;99.90
12520;DHT22;6325;49.540;8.364;2022-09-09T01:58:41;17.60;99.90
12520;DHT22;6325;49.540;8.364;2022-09-09T02:01:20;17.60;99.90
12520;DHT22;6325;49.540;8.364;2022-09-09T02:03:52;17.30;99.90
12520;DHT22;6325;49.540;8.364;2022-09-09T02:06:26;17.30;99.90
12520;DHT22;6325;49.540;8.364;2022-09-09T02:08:56;17.30;99.90
12520;DHT22;6325;49.540;8.364;2022-09-09T02:11:26;17.40;99.90
12520;DHT22;6325;49.540;8.364;2022-09-09T02:13:58;17.30;99.90
12520;DHT22;6325;49.540;8.364;2022-09-09T02:16:30;17.20;99.90
12520;DHT22;6325;49.540;8.364;2022-09-09T02:19:02;17.20;99.90
12520;DHT22;6325;49.540;8.364;2022-09-09T02:21:31;17.30;99.90
12520;DHT22;6325;49.540;8.364;2022-09-09T02:24:03;17.30;99.90
12520;DHT22;6325;49.540;8.364;2022-09-09T02:26:34;17.10;99.90
12520;DHT22;6325;49.540;8.364;2022-09-09T02:29:06;17.30;99.90
12520;DHT22;6325;49.540;8.364;2022-09-09T02:31:35;17.60;99.90
12520;DHT22;6325;49.540;8.364;2022-09-09T02:34:04;16.80;99.90
12520;DHT22;6325;49.540;8.364;2022-09-09T02:36:33;17.30;99.90
12520;DHT22;6325;49.540;8.364;2022-09-09T02:39:03;17.30;99.90
12520;DHT22;6325;49.540;8.364;2022-09-09T02:41:33;17.30;99.90
12520;DHT22;6325;49.540;8.364;2022-09-09T02:44:04;17.20;99.90
12520;DHT22;6325;49.540;8.364;2022-09-09T02:46:53;17.30;99.90
12520;DHT22;6325;49.540;8.364;2022-09-09T02:49:28;17.30;99.90
12520;DHT22;6325;49.540;8.364;2022-09-09T02:52:02;17.00;99.90
12520;DHT22;6325;49.540;8.364;2022-09-09T02:54:32;16.90;99.90
12520;DHT22;6325;49.540;8.364;2022-09-09T02:57:05;17.50;99.90
12520;DHT22;6325;49.540;8.364;2022-09-09T02:59:34;17.20;99.90
12520;DHT22;6325;49.540;8.364;2022-09-09T03:02:01;16.80;99.90
12520;DHT22;6325;49.540;8.364;2022-09-09T03:04:28;17.10;99.90
12520;DHT22;6325;49.540;8.364;2022-09-09T03:06:55;17.10;99.90
12520;DHT22;6325;49.540;8.364;2022-09-09T03:09:22;17.10;99.90
12520;DHT22;6325;49.540;8.364;2022-09-09T03:11:49;17.10;99.90
12520;DHT22;6325;49.540;8.364;2022-09-09T03:14:16;17.10;99.90
12520;DHT22;6325;49.540;8.364;2022-09-09T03:16:47;17.10;99.90
12520;DHT22;6325;49.540;8.364;2022-09-09T03:19:16;17.00;99.90
12520;DHT22;6325;49.540;8.364;2022-09-09T03:21:44;17.00;99.90
12520;DHT22;6325;49.540;8.364;2022-09-09T03:24:11;16.80;99.90
12520;DHT22;6325;49.540;8.364;2022-09-09T03:26:38;16.90;99.90
12520;DHT22;6325;49.540;8.364;2022-09-09T03:29:05;16.50;99.90
12520;DHT22;6325;49.540;8.364;2022-09-09T03:31:32;16.90;99.90
12520;DHT22;6325;49.540;8.364;2022-09-09T03:34:01;16.90;99.90
12520;DHT22;6325;49.540;8.364;2022-09-09T03:36:28;16.90;99.90
12520;DHT22;6325;49.540;8.364;2022-09-09T03:38:55;17.30;99.90
12520;DHT22;6325;49.540;8.364;2022-09-09T03:41:22;16.90;99.90
12520;DHT22;6325;49.540;8.364;2022-09-09T03:43:49;16.80;99.90
12520;DHT22;6325;49.540;8.364;2022-09-09T03:46:16;16.90;99.90
12520;DHT22;6325;49.540;8.364;2022-09-09T03:48:43;16.50;99.90
12520;DHT22;6325;49.540;8.364;2022-09-09T03:51:12;16.80;99.90
12520;DHT22;6325;49.540;8.364;2022-09-09T03:53:39;16.40;99.90
12520;DHT22;6325;49.540;8.364;2022-09-09T03:56:07;17.30;99.90
12520;DHT22;6325;49.540;8.364;2022-09-09T03:58:35;17.30;99.90
12520;DHT22;6325;49.540;8.364;2022-09-09T04:01:04;16.70;99.90
12520;DHT22;6325;49.540;8.364;2022-09-09T04:03:31;16.70;99.90
12520;DHT22;6325;49.540;8.364;2022-09-09T04:06:00;16.70;99.90
12520;DHT22;6325;49.540;8.364;2022-09-09T04:08:30;16.60;99.90
12520;DHT22;6325;49.540;8.364;2022-09-09T04:10:58;16.60;99.90
12520;DHT22;6325;49.540;8.364;2022-09-09T04:13:27;16.20;99.90
12520;DHT22;6325;49.540;8.364;2022-09-09T04:15:56;16.80;99.90
12520;DHT22;6325;49.540;8.364;2022-09-09T04:18:23;16.30;99.90
12520;DHT22;6325;49.540;8.364;2022-09-09T04:20:52;17.10;99.90
12520;DHT22;6325;49.540;8.364;2022-09-09T04:23:20;16.60;99.90
12520;DHT22;6325;49.540;8.364;2022-09-09T04:25:50;16.30;99.90
12520;DHT22;6325;49.540;8.364;2022-09-09T04:28:18;16.20;99.90
12520;DHT22;6325;49.540;8.364;2022-09-09T04:30:46;17.20;99.90
12520;DHT22;6325;49.540;8.364;2022-09-09T04:33:14;16.60;99.90
12520;DHT22;6325;49.540;8.364;2022-09-09T04:35:44;16.60;99.90
12520;DHT22;6325;49.540;8.364;2022-09-09T04:38:11;16.60;99.90
12520;DHT22;6325;49.540;8.364;2022-09-09T04:40:38;16.60;99.90
12520;DHT22;6325;49.540;8.364;2022-09-09T04:43:09;16.70;99.90
12520;DHT22;6325;49.540;8.364;2022-09-09T04:45:36;16.80;99.90
12520;DHT22;6325;49.540;8.364;2022-09-09T04:48:06;16.40;99.90
12520;DHT22;6325;49.540;8.364;2022-09-09T04:50:33;17.10;99.90
12520;DHT22;6325;49.540;8.364;2022-09-09T04:53:00;16.50;99.90
12520;DHT22;6325;49.540;8.364;2022-09-09T04:55:28;16.60;99.90
12520;DHT22;6325;49.540;8.364;2022-09-09T04:57:55;16.10;99.90
12520;DHT22;6325;49.540;8.364;2022-09-09T05:00:24;16.80;99.90
12520;DHT22;6325;49.540;8.364;2022-09-09T05:02:51;16.40;99.90
12520;DHT22;6325;49.540;8.364;2022-09-09T05:05:18;16.50;99.90
12520;DHT22;6325;49.540;8.364;2022-09-09T05:07:45;16.60;99.90
12520;DHT22;6325;49.540;8.364;2022-09-09T05:10:12;17.00;99.90
12520;DHT22;6325;49.540;8.364;2022-09-09T05:12:40;16.70;99.90
12520;DHT22;6325;49.540;8.364;2022-09-09T05:15:08;16.70;99.90
12520;DHT22;6325;49.540;8.364;2022-09-09T05:17:38;16.90;99.90
12520;DHT22;6325;49.540;8.364;2022-09-09T05:20:06;16.70;99.90
12520;DHT22;6325;49.540;8.364;2022-09-09T05:22:33;17.00;99.90
12520;DHT22;6325;49.540;8.364;2022-09-09T05:24:59;17.00;99.90
12520;DHT22;6325;49.540;8.364;2022-09-09T05:27:27;16.70;99.90
12520;DHT22;6325;49.540;8.364;2022-09-09T05:29:53;16.70;99.90
12520;DHT22;6325;49.540;8.364;2022-09-09T05:32:22;16.30;99.90
12520;DHT22;6325;49.540;8.364;2022-09-09T05:34:51;17.10;99.90
12520;DHT22;6325;49.540;8.364;2022-09-09T05:37:18;16.80;99.90
12520;DHT22;6325;49.540;8.364;2022-09-09T05:39:45;17.40;99.90
12520;DHT22;6325;49.540;8.364;2022-09-09T05:42:12;16.70;99.90
12520;DHT22;6325;49.540;8.364;2022-09-09T05:44:38;16.80;99.90
12520;DHT22;6325;49.540;8.364;2022-09-09T05:47:07;17.20;99.90
12520;DHT22;6325;49.540;8.364;2022-09-09T05:49:35;17.20;99.90
12520;DHT22;6325;49.540;8.364;2022-09-09T05:52:03;17.00;99.90
12520;DHT22;6325;49.540;8.364;2022-09-09T05:54:30;17.10;99.90
12520;DHT22;6325;49.540;8.364;2022-09-09T05:56:58;17.30;99.90
12520;DHT22;6325;49.540;8.364;2022-09-09T05:59:25;17.00;99.90
12520;DHT22;6325;49.540;8.364;2022-09-09T06:01:55;16.80;99.90
12520;DHT22;6325;49.540;8.364;2022-09-09T06:04:23;16.90;99.90
12520;DHT22;6325;49.540;8.364;2022-09-09T06:06:50;17.00;99.90
12520;DHT22;6325;49.540;8.364;2022-09-09T06:09:18;17.60;99.90
12520;DHT22;6325;49.540;8.364;2022-09-09T06:11:45;17.40;99.90
12520;DHT22;6325;49.540;8.364;2022-09-09T06:14:12;16.80;99.90
12520;DHT22;6325;49.540;8.364;2022-09-09T06:16:40;17.00;99.90
12520;DHT22;6325;49.540;8.364;2022-09-09T06:19:09;17.10;99.90
12520;DHT22;6325;49.540;8.364;2022-09-09T06:21:37;17.50;99.90
12520;DHT22;6325;49.540;8.364;2022-09-09T06:24:06;17.50;99.90
12520;DHT22;6325;49.540;8.364;2022-09-09T06:26:37;17.20;99.90
12520;DHT22;6325;49.540;8.364;2022-09-09T06:29:06;16.90;99.90
12520;DHT22;6325;49.540;8.364;2022-09-09T06:31:35;17.50;99.90
12520;DHT22;6325;49.540;8.364;2022-09-09T06:34:05;16.80;99.90
12520;DHT22;6325;49.540;8.364;2022-09-09T06:36:33;17.60;99.90
12520;DHT22;6325;49.540;8.364;2022-09-09T06:39:02;17.40;99.90
12520;DHT22;6325;49.540;8.364;2022-09-09T06:41:31;17.10;99.90
12520;DHT22;6325;49.540;8.364;2022-09-09T06:44:00;17.60;99.90
12520;DHT22;6325;49.540;8.364;2022-09-09T06:46:28;17.60;99.90
12520;DHT22;6325;49.540;8.364;2022-09-09T06:48:56;17.70;99.90
12520;DHT22;6325;49.540;8.364;2022-09-09T06:51:27;17.70;99.90
12520;DHT22;6325;49.540;8.364;2022-09-09T06:53:55;17.80;99.90
12520;DHT22;6325;49.540;8.364;2022-09-09T06:56:24;17.80;99.90
12520;DHT22;6325;49.540;8.364;2022-09-09T06:58:56;17.90;99.90
12520;DHT22;6325;49.540;8.364;2022-09-09T07:01:27;17.90;99.90
12520;DHT22;6325;49.540;8.364;2022-09-09T07:03:58;18.10;99.90
12520;DHT22;6325;49.540;8.364;2022-09-09T07:06:27;18.10;99.90
12520;DHT22;6325;49.540;8.364;2022-09-09T07:08:56;18.10;99.90
12520;DHT22;6325;49.540;8.364;2022-09-09T07:11:24;17.80;99.90
12520;DHT22;6325;49.540;8.364;2022-09-09T07:13:52;18.20;99.90
12520;DHT22;6325;49.540;8.364;2022-09-09T07:16:20;18.40;99.90
12520;DHT22;6325;49.540;8.364;2022-09-09T07:18:50;18.20;99.90
12520;DHT22;6325;49.540;8.364;2022-09-09T07:21:18;18.20;99.90
12520;DHT22;6325;49.540;8.364;2022-09-09T07:23:46;18.20;99.90
12520;DHT22;6325;49.540;8.364;2022-09-09T07:26:15;18.00;99.90
12520;DHT22;6325;49.540;8.364;2022-09-09T07:28:43;18.50;99.90
12520;DHT22;6325;49.540;8.364;2022-09-09T07:31:14;18.40;99.90
12520;DHT22;6325;49.540;8.364;2022-09-09T07:33:41;18.50;99.90
12520;DHT22;6325;49.540;8.364;2022-09-09T07:36:13;18.20;99.90
12520;DHT22;6325;49.540;8.364;2022-09-09T07:38:45;18.50;99.90
12520;DHT22;6325;49.540;8.364;2022-09-09T07:41:15;18.40;99.90
12520;DHT22;6325;49.540;8.364;2022-09-09T07:43:44;18.40;99.90
12520;DHT22;6325;49.540;8.364;2022-09-09T07:46:13;18.30;99.90
12520;DHT22;6325;49.540;8.364;2022-09-09T07:48:43;18.30;99.90
12520;DHT22;6325;49.540;8.364;2022-09-09T07:51:15;18.20;99.90
12520;DHT22;6325;49.540;8.364;2022-09-09T07:53:44;18.20;99.90
12520;DHT22;6325;49.540;8.364;2022-09-09T07:56:13;18.00;99.90
12520;DHT22;6325;49.540;8.364;2022-09-09T07:58:40;18.70;99.90
12520;DHT22;6325;49.540;8.364;2022-09-09T08:01:09;18.40;99.90
12520;DHT22;6325;49.540;8.364;2022-09-09T08:03:36;18.50;99.90
12520;DHT22;6325;49.540;8.364;2022-09-09T08:06:04;18.60;99.90
12520;DHT22;6325;49.540;8.364;2022-09-09T08:08:33;18.60;99.90
12520;DHT22;6325;49.540;8.364;2022-09-09T08:11:04;18.90;99.90
12520;DHT22;6325;49.540;8.364;2022-09-09T08:13:33;19.40;99.90
12520;DHT22;6325;49.540;8.364;2022-09-09T08:16:10;19.30;99.90
12520;DHT22;6325;49.540;8.364;2022-09-09T08:18:38;19.00;99.90
12520;DHT22;6325;49.540;8.364;2022-09-09T08:21:08;19.00;99.90
12520;DHT22;6325;49.540;8.364;2022-09-09T08:23:38;18.80;99.90
12520;DHT22;6325;49.540;8.364;2022-09-09T08:26:09;19.20;99.90
12520;DHT22;6325;49.540;8.364;2022-09-09T08:28:37;19.40;99.90
12520;DHT22;6325;49.540;8.364;2022-09-09T08:31:09;18.70;99.90
12520;DHT22;6325;49.540;8.364;2022-09-09T08:33:37;18.80;99.90
12520;DHT22;6325;49.540;8.364;2022-09-09T08:36:05;19.30;99.90
12520;DHT22;6325;49.540;8.364;2022-09-09T08:38:32;19.20;99.90
12520;DHT22;6325;49.540;8.364;2022-09-09T08:41:17;18.80;99.90
12520;DHT22;6325;49.540;8.364;2022-09-09T08:43:50;19.40;99.90
12520;DHT22;6325;49.540;8.364;2022-09-09T08:46:22;18.80;99.90
12520;DHT22;6325;49.540;8.364;2022-09-09T08:48:57;19.20;99.90
12520;DHT22;6325;49.540;8.364;2022-09-09T08:51:27;19.70;99.90
12520;DHT22;6325;49.540;8.364;2022-09-09T08:53:55;19.70;99.90
12520;DHT22;6325;49.540;8.364;2022-09-09T08:56:27;19.60;99.90
12520;DHT22;6325;49.540;8.364;2022-09-09T08:58:59;19.70;99.90
12520;DHT22;6325;49.540;8.364;2022-09-09T09:01:39;20.00;99.90
12520;DHT22;6325;49.540;8.364;2022-09-09T09:04:21;20.40;99.90
12520;DHT22;6325;49.540;8.364;2022-09-09T09:07:01;20.30;99.90
12520;DHT22;6325;49.540;8.364;2022-09-09T09:09:37;20.30;99.90
12520;DHT22;6325;49.540;8.364;2022-09-09T09:12:16;20.30;99.90
12520;DHT22;6325;49.540;8.364;2022-09-09T09:14:44;20.40;99.90
12520;DHT22;6325;49.540;8.364;2022-09-09T09:17:14;20.40;99.90
12520;DHT22;6325;49.540;8.364;2022-09-09T09:19:43;20.50;99.90
12520;DHT22;6325;49.540;8.364;2022-09-09T09:22:17;20.20;99.90
12520;DHT22;6325;49.540;8.364;2022-09-09T09:24:50;20.80;99.90
12520;DHT22;6325;49.540;8.364;2022-09-09T09:27:26;20.50;99.90
12520;DHT22;6325;49.540;8.364;2022-09-09T09:29:57;20.80;99.90
12520;DHT22;6325;49.540;8.364;2022-09-09T09:32:24;20.60;99.90
12520;DHT22;6325;49.540;8.364;2022-09-09T09:34:55;20.70;99.90
12520;DHT22;6325;49.540;8.364;2022-09-09T09:37:27;20.30;99.90
12520;DHT22;6325;49.540;8.364;2022-09-09T09:39:54;20.10;99.90
12520;DHT22;6325;49.540;8.364;2022-09-09T09:42:23;20.70;99.90
12520;DHT22;6325;49.540;8.364;2022-09-09T09:44:51;20.50;99.90
12520;DHT22;6325;49.540;8.364;2022-09-09T09:47:20;21.40;99.90
12520;DHT22;6325;49.540;8.364;2022-09-09T09:49:54;22.00;99.90
12520;DHT22;6325;49.540;8.364;2022-09-09T09:52:23;21.50;99.90
12520;DHT22;6325;49.540;8.364;2022-09-09T09:54:50;21.80;99.90
12520;DHT22;6325;49.540;8.364;2022-09-09T09:57:22;21.80;99.90
12520;DHT22;6325;49.540;8.364;2022-09-09T10:00:00;21.50;99.90
12520;DHT22;6325;49.540;8.364;2022-09-09T10:02:37;21.50;99.90
12520;DHT22;6325;49.540;8.364;2022-09-09T10:05:12;21.00;99.90
12520;DHT22;6325;49.540;8.364;2022-09-09T10:07:39;20.90;99.90
12520;DHT22;6325;49.540;8.364;2022-09-09T10:10:10;21.00;99.90
12520;DHT22;6325;49.540;8.364;2022-09-09T10:12:47;21.20;99.90
12520;DHT22;6325;49.540;8.364;2022-09-09T10:15:38;21.20;99.90
12520;DHT22;6325;49.540;8.364;2022-09-09T10:18:21;21.50;99.90
12520;DHT22;6325;49.540;8.364;2022-09-09T10:20:58;21.50;99.90
12520;DHT22;6325;49.540;8.364;2022-09-09T10:23:40;21.60;99.90
12520;DHT22;6325;49.540;8.364;2022-09-09T10:26:30;21.60;99.90
12520;DHT22;6325;49.540;8.364;2022-09-09T10:32:06;22.30;99.90
12520;DHT22;6325;49.540;8.364;2022-09-09T10:34:55;22.00;99.90
12520;DHT22;6325;49.540;8.364;2022-09-09T10:37:41;21.60;99.90
12520;DHT22;6325;49.540;8.364;2022-09-09T10:40:26;22.30;99.90
12520;DHT22;6325;49.540;8.364;2022-09-09T10:43:01;22.40;99.90
12520;DHT22;6325;49.540;8.364;2022-09-09T10:45:35;22.30;99.90
12520;DHT22;6325;49.540;8.364;2022-09-09T10:51:20;22.60;99.90
12520;DHT22;6325;49.540;8.364;2022-09-09T10:53:55;22.90;99.90
12520;DHT22;6325;49.540;8.364;2022-09-09T10:56:26;22.90;99.90
12520;DHT22;6325;49.540;8.364;2022-09-09T10:58:56;23.10;99.90
12520;DHT22;6325;49.540;8.364;2022-09-09T11:01:28;23.10;99.90
12520;DHT22;6325;49.540;8.364;2022-09-09T11:04:01;23.10;99.90
12520;DHT22;6325;49.540;8.364;2022-09-09T11:06:37;22.90;99.90
12520;DHT22;6325;49.540;8.364;2022-09-09T11:09:09;23.40;99.90
12520;DHT22;6325;49.540;8.364;2022-09-09T11:11:45;23.20;99.90
12520;DHT22;6325;49.540;8.364;2022-09-09T11:14:18;23.40;99.90
12520;DHT22;6325;49.540;8.364;2022-09-09T11:16:49;22.90;99.90
12520;DHT22;6325;49.540;8.364;2022-09-09T11:19:21;22.70;99.90
12520;DHT22;6325;49.540;8.364;2022-09-09T11:21:53;22.80;99.90
12520;DHT22;6325;49.540;8.364;2022-09-09T11:24:23;22.40;99.90
12520;DHT22;6325;49.540;8.364;2022-09-09T11:26:54;22.40;99.90
12520;DHT22;6325;49.540;8.364;2022-09-09T11:29:50;22.50;99.90
12520;DHT22;6325;49.540;8.364;2022-09-09T11:32:29;22.30;99.90
12520;DHT22;6325;49.540;8.364;2022-09-09T11:35:11;22.20;99.90
12520;DHT22;6325;49.540;8.364;2022-09-09T11:40:38;22.50;99.90
12520;DHT22;6325;49.540;8.364;2022-09-09T11:43:09;21.10;99.90
12520;DHT22;6325;49.540;8.364;2022-09-09T11:45:38;21.50;99.90
12520;DHT22;6325;49.540;8.364;2022-09-09T11:48:21;21.30;99.90
12520;DHT22;6325;49.540;8.364;2022-09-09T11:50:59;21.00;99.90
12520;DHT22;6325;49.540;8.364;2022-09-09T11:53:27;20.80;99.90
12520;DHT22;6325;49.540;8.364;2022-09-09T11:56:12;20.90;99.90
12520;DHT22;6325;49.540;8.364;2022-09-09T11:58:42;20.70;99.90
12520;DHT22;6325;49.540;8.364;2022-09-09T12:01:15;20.70;99.90
12520;DHT22;6325;49.540;8.364;2022-09-09T12:03:46;20.70;99.90
12520;DHT22;6325;49.540;8.364;2022-09-09T12:06:16;20.70;99.90
12520;DHT22;6325;49.540;8.364;2022-09-09T12:08:51;20.50;99.90
12520;DHT22;6325;49.540;8.364;2022-09-09T12:11:28;20.50;99.90
12520;DHT22;6325;49.540;8.364;2022-09-09T12:13:58;20.00;99.90
12520;DHT22;6325;49.540;8.364;2022-09-09T12:16:31;20.30;99.90
12520;DHT22;6325;49.540;8.364;2022-09-09T12:19:13;20.20;99.90
12520;DHT22;6325;49.540;8.364;2022-09-09T12:21:46;19.90;99.90
12520;DHT22;6325;49.540;8.364;2022-09-09T12:24:20;20.00;99.90
12520;DHT22;6325;49.540;8.364;2022-09-09T12:26:52;20.70;99.90
12520;DHT22;6325;49.540;8.364;2022-09-09T12:29:28;20.30;99.90
12520;DHT22;6325;49.540;8.364;2022-09-09T12:32:02;20.90;99.90
12520;DHT22;6325;49.540;8.364;2022-09-09T12:34:38;20.80;99.90
12520;DHT22;6325;49.540;8.364;2022-09-09T12:37:13;21.20;99.90
12520;DHT22;6325;49.540;8.364;2022-09-09T12:39:45;22.00;99.90
12520;DHT22;6325;49.540;8.364;2022-09-09T12:42:18;22.00;99.90
12520;DHT22;6325;49.540;8.364;2022-09-09T12:44:53;22.70;99.90
12520;DHT22;6325;49.540;8.364;2022-09-09T12:47:22;22.60;99.90
12520;DHT22;6325;49.540;8.364;2022-09-09T12:49:53;22.90;99.90
12520;DHT22;6325;49.540;8.364;2022-09-09T12:52:27;23.10;99.90
12520;DHT22;6325;49.540;8.364;2022-09-09T12:54:58;23.50;99.90
12520;DHT22;6325;49.540;8.364;2022-09-09T12:57:28;23.60;99.90
12520;DHT22;6325;49.540;8.364;2022-09-09T13:00:10;23.00;99.90
12520;DHT22;6325;49.540;8.364;2022-09-09T13:02:46;22.80;99.90
12520;DHT22;6325;49.540;8.364;2022-09-09T13:05:17;22.70;99.90
12520;DHT22;6325;49.540;8.364;2022-09-09T13:07:44;22.60;99.90
12520;DHT22;6325;49.540;8.364;2022-09-09T13:10:19;22.50;99.90
12520;DHT22;6325;49.540;8.364;2022-09-09T13:12:48;22.40;99.90
12520;DHT22;6325;49.540;8.364;2022-09-09T13:15:21;22.50;99.90
12520;DHT22;6325;49.540;8.364;2022-09-09T13:17:53;22.10;99.90
12520;DHT22;6325;49.540;8.364;2022-09-09T13:20:22;21.90;99.90
12520;DHT22;6325;49.540;8.364;2022-09-09T13:22:50;22.30;99.90
12520;DHT22;6325;49.540;8.364;2022-09-09T13:25:23;21.80;99.90
12520;DHT22;6325;49.540;8.364;2022-09-09T13:27:54;22.40;99.90
12520;DHT22;6325;49.540;8.364;2022-09-09T13:30:24;22.60;99.90
12520;DHT22;6325;49.540;8.364;2022-09-09T13:33:06;22.50;99.90
12520;DHT22;6325;49.540;8.364;2022-09-09T13:35:33;22.40;99.90
12520;DHT22;6325;49.540;8.364;2022-09-09T13:38:07;22.80;99.90
12520;DHT22;6325;49.540;8.364;2022-09-09T13:40:37;22.90;99.90
12520;DHT22;6325;49.540;8.364;2022-09-09T13:43:04;23.30;99.90
12520;DHT22;6325;49.540;8.364;2022-09-09T13:45:31;22.90;99.90
12520;DHT22;6325;49.540;8.364;2022-09-09T13:48:09;23.80;99.90
12520;DHT22;6325;49.540;8.364;2022-09-09T13:50:36;23.70;99.90
12520;DHT22;6325;49.540;8.364;2022-09-09T13:53:03;23.70;99.90
12520;DHT22;6325;49.540;8.364;2022-09-09T13:55:30;23.80;99.90
12520;DHT22;6325;49.540;8.364;2022-09-09T13:58:00;24.20;99.90
12520;DHT22;6325;49.540;8.364;2022-09-09T14:00:30;23.40;99.90
12520;DHT22;6325;49.540;8.364;2022-09-09T14:02:57;23.30;99.90
12520;DHT22;6325;49.540;8.364;2022-09-09T14:05:27;23.20;99.90
12520;DHT22;6325;49.540;8.364;2022-09-09T14:07:54;23.10;99.90
12520;DHT22;6325;49.540;8.364;2022-09-09T14:10:21;23.20;99.90
12520;DHT22;6325;49.540;8.364;2022-09-09T14:12:48;23.60;99.90
12520;DHT22;6325;49.540;8.364;2022-09-09T14:15:16;23.50;99.90
12520;DHT22;6325;49.540;8.364;2022-09-09T14:17:44;23.00;99.90
12520;DHT22;6325;49.540;8.364;2022-09-09T14:20:11;23.10;99.90
12520;DHT22;6325;49.540;8.364;2022-09-09T14:22:41;23.60;99.90
12520;DHT22;6325;49.540;8.364;2022-09-09T14:25:09;23.40;99.90
12520;DHT22;6325;49.540;8.364;2022-09-09T14:27:36;22.30;99.90
12520;DHT22;6325;49.540;8.364;2022-09-09T14:30:05;23.30;99.90
12520;DHT22;6325;49.540;8.364;2022-09-09T14:32:34;22.80;99.90
12520;DHT22;6325;49.540;8.364;2022-09-09T14:35:01;22.70;99.90
12520;DHT22;6325;49.540;8.364;2022-09-09T14:37:27;22.60;99.90
12520;DHT22;6325;49.540;8.364;2022-09-09T14:39:56;22.40;99.90
12520;DHT22;6325;49.540;8.364;2022-09-09T14:42:23;22.30;99.90
12520;DHT22;6325;49.540;8.364;2022-09-09T14:44:51;21.70;99.90
12520;DHT22;6325;49.540;8.364;2022-09-09T14:47:18;22.00;99.90
12520;DHT22;6325;49.540;8.364;2022-09-09T14:49:46;21.80;99.90
12520;DHT22;6325;49.540;8.364;2022-09-09T14:52:15;21.90;99.90
12520;DHT22;6325;49.540;8.364;2022-09-09T14:54:42;22.10;99.90
12520;DHT22;6325;49.540;8.364;2022-09-09T14:57:09;21.30;99.90
12520;DHT22;6325;49.540;8.364;2022-09-09T14:59:36;21.70;99.90
12520;DHT22;6325;49.540;8.364;2022-09-09T15:02:03;21.40;99.90
12520;DHT22;6325;49.540;8.364;2022-09-09T15:04:30;21.10;99.90
12520;DHT22;6325;49.540;8.364;2022-09-09T15:06:58;21.40;99.90
12520;DHT22;6325;49.540;8.364;2022-09-09T15:09:25;21.40;99.90
12520;DHT22;6325;49.540;8.364;2022-09-09T15:11:52;21.20;99.90
12520;DHT22;6325;49.540;8.364;2022-09-09T15:14:20;20.50;99.90
12520;DHT22;6325;49.540;8.364;2022-09-09T15:17:18;21.10;99.90
12520;DHT22;6325;49.540;8.364;2022-09-09T15:19:45;21.00;99.90
12520;DHT22;6325;49.540;8.364;2022-09-09T15:22:14;21.00;99.90
12520;DHT22;6325;49.540;8.364;2022-09-09T15:24:40;20.50;99.90
12520;DHT22;6325;49.540;8.364;2022-09-09T15:27:07;20.30;99.90
12520;DHT22;6325;49.540;8.364;2022-09-09T15:29:34;20.20;99.90
12520;DHT22;6325;49.540;8.364;2022-09-09T15:32:01;20.50;99.90
12520;DHT22;6325;49.540;8.364;2022-09-09T15:34:28;19.80;99.90
12520;DHT22;6325;49.540;8.364;2022-09-09T15:36:55;19.70;99.90
12520;DHT22;6325;49.540;8.364;2022-09-09T15:39:23;19.60;99.90
12520;DHT22;6325;49.540;8.364;2022-09-09T15:41:50;19.60;99.90
12520;DHT22;6325;49.540;8.364;2022-09-09T15:44:17;19.20;99.90
12520;DHT22;6325;49.540;8.364;2022-09-09T15:46:45;19.00;99.90
12520;DHT22;6325;49.540;8.364;2022-09-09T15:49:13;19.90;99.90
12520;DHT22;6325;49.540;8.364;2022-09-09T15:51:42;20.00;99.90
12520;DHT22;6325;49.540;8.364;2022-09-09T15:54:10;20.30;99.90
12520;DHT22;6325;49.540;8.364;2022-09-09T15:56:39;21.00;99.90
12520;DHT22;6325;49.540;8.364;2022-09-09T15:59:06;21.20;99.90
12520;DHT22;6325;49.540;8.364;2022-09-09T16:01:33;21.40;99.90
12520;DHT22;6325;49.540;8.364;2022-09-09T16:04:00;21.60;99.90
12520;DHT22;6325;49.540;8.364;2022-09-09T16:06:28;21.60;99.90
12520;DHT22;6325;49.540;8.364;2022-09-09T16:08:57;21.20;99.90
12520;DHT22;6325;49.540;8.364;2022-09-09T16:11:27;21.00;99.90
12520;DHT22;6325;49.540;8.364;2022-09-09T16:13:55;21.10;99.90
12520;DHT22;6325;49.540;8.364;2022-09-09T16:16:25;20.80;99.90